Time;durP1;ratioP1;P1;durP2;ratioP2;P2;SDS_P1;SDS_P2;PMS_P1;PMS_P2;Temp;Humidity;BMP_temperature;BMP_pressure;BME280_temperature;BME280_humidity;BME280_pressure;Samples;Min_cycle;Max_cycle;Signal;HPM_P1;HPM_P2
2022/11/20 00:02:12;;;;;;;28.20;10.32;;;8.60;99.90;;;;;;6175931;28;20189;-87
2022/11/20 00:05:13;;;;;;;23.60;9.98;;;8.60;99.90;;;;;;6175812;28;20086;-87
2022/11/20 00:08:24;;;;;;;29.55;10.52;;;8.60;99.90;;;;;;6164959;28;20047;-87
2022/11/20 00:11:28;;;;;;;23.80;9.18;;;8.70;99.90;;;;;;6175874;28;20687;-86
2022/11/20 00:14:38;;;;;;;21.23;8.82;;;8.70;99.90;;;;;;6175728;28;20114;-87
2022/11/20 00:17:40;;;;;;;26.27;8.35;;;8.70;99.90;;;;;;6134890;28;20058;-87
2022/11/20 00:20:42;;;;;;;22.58;9.65;;;8.70;99.90;;;;;;6174132;28;20816;-88
2022/11/20 00:23:44;;;;;;;19.98;8.55;;;8.70;99.90;;;;;;6176078;28;20055;-88
2022/11/20 00:26:47;;;;;;;23.05;10.23;;;8.80;99.90;;;;;;6177310;28;20051;-87
2022/11/20 00:29:56;;;;;;;27.67;10.63;;;8.90;99.90;;;;;;6164925;28;20054;-87
2022/11/20 00:32:58;;;;;;;20.00;9.48;;;8.90;99.90;;;;;;6178347;28;20113;-87
2022/11/20 00:39:37;;;;;;;25.20;8.63;;;8.90;99.90;;;;;;6177783;28;20516;-87
2022/11/20 00:42:43;;;;;;;24.50;9.38;;;8.90;99.90;;;;;;6176028;28;20054;-87
2022/11/20 00:45:45;;;;;;;20.00;8.75;;;9.00;99.90;;;;;;6176394;28;20046;-88
2022/11/20 00:48:47;;;;;;;19.52;8.13;;;9.00;99.90;;;;;;6177819;28;20202;-87
2022/11/20 00:51:49;;;;;;;27.63;10.30;;;9.00;99.90;;;;;;6177282;28;20744;-88
2022/11/20 00:54:51;;;;;;;15.90;7.57;;;9.10;99.90;;;;;;6180456;28;20046;-88
2022/11/20 00:57:54;;;;;;;21.85;8.32;;;9.10;99.90;;;;;;6179036;28;20702;-88
2022/11/20 01:01:01;;;;;;;23.00;9.65;;;9.10;99.90;;;;;;6179661;28;20047;-88
2022/11/20 01:04:03;;;;;;;16.70;7.88;;;9.10;99.90;;;;;;6179607;28;20054;-88
2022/11/20 01:07:05;;;;;;;18.65;9.07;;;9.10;99.90;;;;;;6181741;28;20062;-88
2022/11/20 01:10:10;;;;;;;22.33;9.77;;;9.10;99.90;;;;;;6170317;28;20409;-88
2022/11/20 01:16:42;;;;;;;;;;;9.20;99.90;;;;;;6131563;28;20394;-88
2022/11/20 01:19:49;;;;;;;26.42;10.27;;;9.30;99.90;;;;;;6178287;28;19974;-87
2022/11/20 01:22:51;;;;;;;24.03;9.17;;;9.30;99.90;;;;;;6182193;28;20134;-88
2022/11/20 01:25:53;;;;;;;19.98;10.05;;;9.30;99.90;;;;;;6173165;28;20521;-87
2022/11/20 01:28:57;;;;;;;21.63;9.50;;;9.30;99.90;;;;;;6173157;28;20086;-88
2022/11/20 01:31:59;;;;;;;17.77;8.25;;;9.30;99.90;;;;;;6175832;28;20046;-88
2022/11/20 01:35:01;;;;;;;16.98;8.32;;;9.30;99.90;;;;;;6178329;28;20133;-88
2022/11/20 01:38:03;;;;;;;22.80;9.35;;;9.30;99.90;;;;;;6177328;28;20074;-88
2022/11/20 01:41:06;;;;;;;18.25;8.20;;;9.30;99.90;;;;;;6174966;28;20425;-88
2022/11/20 01:44:14;;;;;;;16.58;7.65;;;9.30;99.90;;;;;;6176929;28;20055;-88
2022/11/20 01:47:21;;;;;;;14.48;6.03;;;9.20;99.90;;;;;;6177007;28;20058;-88
2022/11/20 01:50:25;;;;;;;22.25;7.97;;;9.10;99.90;;;;;;6177476;28;20047;-88
2022/11/20 01:53:31;;;;;;;15.68;7.00;;;9.00;99.90;;;;;;6177304;28;20042;-89
2022/11/20 01:56:37;;;;;;;14.65;6.63;;;8.90;99.90;;;;;;6177232;28;20054;-89
2022/11/20 01:59:45;;;;;;;15.98;7.07;;;8.90;99.90;;;;;;6177159;28;20061;-88
2022/11/20 02:06:57;;;;;;;11.30;6.38;;;8.90;99.90;;;;;;6174409;28;20050;-89
2022/11/20 02:10:18;;;;;;;11.82;6.25;;;8.90;99.90;;;;;;6143431;28;20047;-89
2022/11/20 02:16:47;;;;;;;11.10;5.97;;;9.20;99.90;;;;;;6133400;29;20071;-89
2022/11/20 02:19:49;;;;;;;10.35;4.75;;;9.20;99.90;;;;;;6148020;28;20055;-88
2022/11/20 02:23:00;;;;;;;18.42;6.20;;;9.40;99.90;;;;;;6149471;29;20417;-88
2022/11/20 02:26:11;;;;;;;9.32;5.00;;;9.30;99.90;;;;;;6148689;28;20061;-88
2022/11/20 02:29:28;;;;;;;12.07;4.88;;;9.40;99.90;;;;;;6126084;28;20070;-88
2022/11/20 02:32:32;;;;;;;6.55;3.47;;;9.40;99.90;;;;;;6131708;28;20066;-88
2022/11/20 03:20:00;;;;;;;6.28;4.03;;;9.70;99.90;;;;;;5905617;30;20052;-87
2022/11/20 03:23:02;;;;;;;7.00;4.57;;;9.70;99.90;;;;;;5956095;29;20145;-88
2022/11/20 03:26:31;;;;;;;9.20;4.47;;;9.70;99.90;;;;;;6034773;29;20516;-88
2022/11/20 03:29:33;;;;;;;11.18;4.55;;;9.70;99.90;;;;;;6132355;28;20528;-88
2022/11/20 03:32:41;;;;;;;7.88;4.70;;;9.70;99.90;;;;;;6155127;29;20081;-87
2022/11/20 03:39:36;;;;;;;6.35;3.72;;;9.70;99.90;;;;;;6103873;29;19919;-86
2022/11/20 03:47:10;;;;;;;16.65;4.30;;;9.70;99.90;;;;;;6143183;29;20561;-87
2022/11/20 04:06:55;;;;;;;5.82;3.30;;;9.70;99.90;;;;;;6116286;29;20528;-87
2022/11/20 04:18:23;;;;;;;4.80;3.28;;;9.80;99.90;;;;;;6040203;29;20048;-87
2022/11/20 04:33:55;;;;;;;7.97;3.15;;;9.90;99.90;;;;;;6050174;29;20620;-88
2022/11/20 04:37:06;;;;;;;4.78;2.78;;;9.90;99.90;;;;;;6131565;28;20052;-88
2022/11/20 04:40:24;;;;;;;3.63;1.77;;;10.00;99.90;;;;;;6125924;29;20450;-88
2022/11/20 04:43:36;;;;;;;6.03;3.10;;;10.00;99.90;;;;;;6127793;29;20082;-88
2022/11/20 04:46:40;;;;;;;4.15;2.38;;;10.00;99.90;;;;;;6126671;29;20521;-88
2022/11/20 04:49:55;;;;;;;9.15;3.03;;;10.00;99.90;;;;;;6113901;28;20136;-88
2022/11/20 04:56:55;;;;;;;8.88;3.42;;;10.00;99.90;;;;;;6102097;29;20051;-88
2022/11/20 04:59:57;;;;;;;3.83;2.63;;;10.00;99.90;;;;;;6150137;29;20047;-88
2022/11/20 05:02:59;;;;;;;11.02;4.35;;;10.00;99.90;;;;;;6152722;28;20072;-88
2022/11/20 05:06:06;;;;;;;5.60;3.28;;;10.00;99.90;;;;;;6150206;29;20480;-88
2022/11/20 05:09:08;;;;;;;5.10;2.58;;;10.00;99.90;;;;;;6149605;29;20417;-88
2022/11/20 05:12:11;;;;;;;10.60;3.17;;;10.00;99.90;;;;;;6158298;28;20616;-88
2022/11/20 05:15:17;;;;;;;4.85;2.35;;;10.00;99.90;;;;;;6174013;28;20138;-88
2022/11/20 05:18:19;;;;;;;5.43;2.88;;;10.10;99.90;;;;;;6173156;28;20190;-88
2022/11/20 05:21:23;;;;;;;12.35;3.05;;;10.10;99.90;;;;;;6174421;28;20067;-87
2022/11/20 05:24:25;;;;;;;5.50;2.65;;;10.10;99.90;;;;;;6174107;28;20057;-89
2022/11/20 05:27:27;;;;;;;5.43;2.50;;;10.00;99.90;;;;;;6174220;28;20093;-89
2022/11/20 05:34:08;;;;;;;4.17;2.27;;;9.90;99.90;;;;;;6175454;28;20576;-87
2022/11/20 05:37:11;;;;;;;4.00;2.65;;;10.00;99.90;;;;;;6174077;28;20141;-87
2022/11/20 05:40:14;;;;;;;8.52;2.25;;;10.00;99.90;;;;;;6175893;28;20057;-87
2022/11/20 05:43:18;;;;;;;6.63;2.55;;;10.00;99.90;;;;;;6177308;28;20059;-87
2022/11/20 05:46:23;;;;;;;4.82;2.20;;;10.00;99.90;;;;;;6175295;28;20078;-88
2022/11/20 05:49:40;;;;;;;3.65;1.90;;;10.00;99.90;;;;;;6149078;28;20070;-87
2022/11/20 05:52:43;;;;;;;5.05;2.42;;;10.00;99.90;;;;;;6164071;28;20101;-88
2022/11/20 05:55:45;;;;;;;9.90;3.45;;;10.00;99.90;;;;;;6173651;28;20103;-87
2022/11/20 06:02:26;;;;;;;9.05;4.57;;;10.00;99.90;;;;;;6150329;28;20054;-87
2022/11/20 06:05:28;;;;;;;5.85;2.45;;;10.00;99.90;;;;;;6174774;28;20062;-87
2022/11/20 06:08:47;;;;;;;12.18;6.72;;;10.00;99.90;;;;;;6164748;28;20102;-87
2022/11/20 06:12:00;;;;;;;4.95;2.90;;;10.00;99.90;;;;;;6168925;28;20113;-87
2022/11/20 06:15:07;;;;;;;11.20;5.15;;;10.00;99.90;;;;;;6176392;28;20101;-87
2022/11/20 06:18:36;;;;;;;7.72;3.60;;;10.00;99.90;;;;;;6177100;28;20505;-87
2022/11/20 06:21:38;;;;;;;108.10;27.13;;;10.00;99.90;;;;;;6166685;28;20047;-87
2022/11/20 06:24:44;;;;;;;5.15;2.33;;;10.00;99.90;;;;;;6168508;28;20058;-87
2022/11/20 06:27:46;;;;;;;47.92;12.48;;;10.00;99.90;;;;;;6176733;28;20102;-86
2022/11/20 06:34:17;;;;;;;15.25;4.93;;;10.00;99.90;;;;;;6164138;28;20445;-87
2022/11/20 06:37:52;;;;;;;11.38;3.70;;;10.00;99.90;;;;;;6149167;29;20171;-86
2022/11/20 08:15:15;;;;;;;7.22;3.22;;;10.00;99.90;;;;;;6153511;29;20051;-85
2022/11/20 08:18:17;;;;;;;4.43;2.70;;;10.00;99.90;;;;;;6149843;28;20055;-85
2022/11/20 08:21:18;;;;;;;5.47;2.67;;;10.00;99.90;;;;;;6139265;28;20059;-85
2022/11/20 08:24:20;;;;;;;11.05;3.40;;;10.00;99.90;;;;;;6134673;28;20047;-86
2022/11/20 08:27:23;;;;;;;7.07;3.35;;;10.00;99.90;;;;;;6151909;29;20058;-86
2022/11/20 08:30:25;;;;;;;7.13;3.00;;;10.00;99.90;;;;;;6129293;28;20051;-86
2022/11/20 08:33:27;;;;;;;11.05;2.40;;;10.10;99.90;;;;;;6112749;28;20101;-87
2022/11/20 08:36:29;;;;;;;4.07;2.17;;;10.10;99.90;;;;;;6127435;29;20461;-85
2022/11/20 08:39:31;;;;;;;4.60;2.08;;;10.20;99.90;;;;;;6130211;29;20061;-86
2022/11/20 08:42:34;;;;;;;7.35;2.17;;;10.20;99.90;;;;;;6126470;29;20511;-86
2022/11/20 08:45:35;;;;;;;4.05;2.45;;;10.20;99.90;;;;;;6127633;29;20052;-86
2022/11/20 08:48:37;;;;;;;7.88;2.40;;;10.20;99.90;;;;;;6127023;29;20425;-86
2022/11/20 08:51:39;;;;;;;8.18;3.67;;;10.30;99.90;;;;;;6128597;29;20055;-84
2022/11/20 08:54:41;;;;;;;5.55;2.53;;;10.30;99.90;;;;;;6127691;29;20130;-86
2022/11/20 08:57:44;;;;;;;8.77;2.55;;;10.30;99.90;;;;;;6127284;29;20058;-84
2022/11/20 09:00:46;;;;;;;5.55;2.30;;;10.30;99.90;;;;;;6127771;29;20448;-86
2022/11/20 09:03:48;;;;;;;4.03;2.28;;;10.30;99.90;;;;;;6127571;29;20062;-85
2022/11/20 09:06:51;;;;;;;4.97;1.90;;;10.40;99.90;;;;;;6129685;29;20047;-86
2022/11/20 09:09:52;;;;;;;6.95;2.30;;;10.40;99.90;;;;;;6126029;29;20131;-86
2022/11/20 09:12:56;;;;;;;9.85;1.98;;;10.40;99.90;;;;;;6127995;29;20429;-86
2022/11/20 09:15:59;;;;;;;6.68;2.35;;;10.40;99.90;;;;;;6121732;29;20047;-85
2022/11/20 09:19:01;;;;;;;3.58;2.40;;;10.30;99.90;;;;;;6123631;29;20450;-85
2022/11/20 09:22:03;;;;;;;5.85;2.40;;;10.20;99.90;;;;;;6127503;28;20043;-85
2022/11/20 09:25:06;;;;;;;25.92;9.32;;;10.20;99.90;;;;;;6127755;28;20051;-86
2022/11/20 09:28:09;;;;;;;4.85;2.33;;;10.20;99.90;;;;;;6127130;28;20054;-82
2022/11/20 09:31:24;;;;;;;7.63;3.53;;;10.20;99.90;;;;;;6128226;29;20044;-86
2022/11/20 09:34:25;;;;;;;7.93;3.13;;;10.10;99.90;;;;;;6128570;28;20164;-87
2022/11/20 09:37:27;;;;;;;4.20;2.00;;;10.20;99.90;;;;;;6127600;29;20048;-87
2022/11/20 09:40:30;;;;;;;3.60;2.20;;;10.20;99.90;;;;;;6126876;29;20099;-84
2022/11/20 09:43:47;;;;;;;6.97;3.30;;;10.20;99.90;;;;;;6127628;29;20402;-85
2022/11/20 09:46:55;;;;;;;8.48;2.95;;;10.10;99.90;;;;;;6128300;29;20632;-85
2022/11/20 09:50:03;;;;;;;;;;;10.10;99.90;;;;;;6127716;28;20057;-86
2022/11/20 09:53:23;;;;;;;6.47;3.30;;;10.30;99.90;;;;;;6128616;29;20308;-88
2022/11/20 09:56:25;;;;;;;5.25;3.63;;;10.30;99.90;;;;;;6128033;29;20054;-84
2022/11/20 09:59:35;;;;;;;9.55;3.33;;;10.20;99.90;;;;;;6127072;29;20051;-87
2022/11/20 10:02:43;;;;;;;5.72;2.85;;;10.20;99.90;;;;;;6128419;29;20051;-88
2022/11/20 10:05:47;;;;;;;5.57;2.35;;;10.20;99.90;;;;;;6126767;28;20090;-85
2022/11/20 10:09:00;;;;;;;5.13;2.97;;;10.20;99.90;;;;;;6126199;29;20048;-86
2022/11/20 10:12:13;;;;;;;6.55;3.13;;;10.20;99.90;;;;;;6149709;29;20055;-84
2022/11/20 10:15:28;;;;;;;6.95;2.28;;;10.30;99.90;;;;;;6146114;29;20134;-87
2022/11/20 10:18:44;;;;;;;6.78;3.45;;;10.40;99.90;;;;;;6121146;29;20052;-86
2022/11/20 10:22:00;;;;;;;7.97;2.92;;;10.50;99.90;;;;;;6111880;29;20048;-85
2022/11/20 10:25:12;;;;;;;7.00;2.88;;;10.60;99.90;;;;;;6112820;29;20052;-87
2022/11/20 10:28:26;;;;;;;8.50;3.13;;;10.70;99.90;;;;;;6110205;29;20044;-85
2022/11/20 10:31:33;;;;;;;5.50;2.97;;;10.90;99.90;;;;;;6109314;29;20048;-84
2022/11/20 10:34:45;;;;;;;5.93;2.63;;;11.10;99.90;;;;;;6115300;29;20066;-86
2022/11/20 10:37:51;;;;;;;5.22;2.85;;;11.20;99.90;;;;;;6129439;28;20063;-84
2022/11/20 10:41:24;;;;;;;3.88;2.03;;;11.40;99.90;;;;;;6132115;29;20054;-87
2022/11/20 10:45:00;;;;;;;13.02;2.60;;;11.60;99.90;;;;;;6131449;29;20055;-83
2022/11/20 10:47:45;;;;;;;4.88;3.05;;;11.60;99.90;;;;;;6124989;28;20051;-84
2022/11/20 10:51:11;;;;;;;5.20;2.30;;;11.70;99.90;;;;;;6141657;29;20052;-86
2022/11/20 10:54:22;;;;;;;5.38;2.20;;;11.70;99.90;;;;;;6131728;29;20098;-86
2022/11/20 10:57:38;;;;;;;5.20;2.67;;;11.80;99.90;;;;;;6132285;28;20187;-86
2022/11/20 11:00:39;;;;;;;6.47;2.60;;;11.90;99.90;;;;;;6131214;29;20189;-87
2022/11/20 11:03:44;;;;;;;4.68;2.05;;;11.90;99.90;;;;;;6131121;28;20502;-86
2022/11/20 11:06:49;;;;;;;4.13;1.73;;;11.90;99.90;;;;;;6130523;29;20078;-85
2022/11/20 11:09:53;;;;;;;41.22;13.35;;;12.00;99.90;;;;;;6128970;29;20477;-87
2022/11/20 11:12:55;;;;;;;10.57;4.35;;;12.00;99.90;;;;;;6131340;29;20134;-87
2022/11/20 11:15:58;;;;;;;37.17;9.73;;;11.90;99.90;;;;;;6148124;28;20047;-86
2022/11/20 11:19:13;;;;;;;16.00;4.28;;;12.00;99.90;;;;;;6150910;28;20053;-84
2022/11/20 11:22:18;;;;;;;26.10;6.65;;;11.90;99.90;;;;;;6132729;28;20426;-86
2022/11/20 11:25:23;;;;;;;11.30;4.75;;;11.90;99.90;;;;;;6134999;28;20048;-85
2022/11/20 11:28:27;;;;;;;4.85;1.65;;;11.90;99.90;;;;;;6133027;28;20048;-85
2022/11/20 11:31:31;;;;;;;28.70;13.50;;;12.00;99.90;;;;;;6133039;29;20051;-85
2022/11/20 11:34:34;;;;;;;12.48;5.10;;;12.40;99.90;;;;;;6139167;28;20106;-84
2022/11/20 11:37:38;;;;;;;8.43;2.40;;;12.90;99.90;;;;;;6171229;28;20051;-87
2022/11/20 11:40:41;;;;;;;18.77;6.75;;;13.50;99.90;;;;;;6181035;28;20097;-86
2022/11/20 11:47:22;;;;;;;3.63;1.52;;;14.40;99.90;;;;;;6179321;28;20058;-85
2022/11/20 11:50:27;;;;;;;14.93;5.85;;;14.80;99.90;;;;;;6177745;28;20065;-85
2022/11/20 11:53:30;;;;;;;2.10;1.02;;;15.30;99.90;;;;;;6178007;28;20150;-86
2022/11/20 11:56:33;;;;;;;3.80;1.45;;;15.60;99.90;;;;;;6178047;28;20047;-87
2022/11/20 11:59:47;;;;;;;8.80;1.88;;;15.90;99.90;;;;;;6176421;28;20051;-85
2022/11/20 12:02:58;;;;;;;1.80;1.08;;;16.10;99.90;;;;;;6177423;28;20074;-86
2022/11/20 12:06:07;;;;;;;13.50;4.38;;;16.20;99.90;;;;;;6167606;28;20415;-85
2022/11/20 12:09:11;;;;;;;4.20;1.33;;;16.10;99.90;;;;;;6150847;28;20054;-86
2022/11/20 12:12:19;;;;;;;1.77;1.08;;;15.80;99.90;;;;;;6152196;28;20053;-86
2022/11/20 12:15:29;;;;;;;5.57;2.05;;;15.30;99.90;;;;;;6153666;28;20074;-86
2022/11/20 12:18:32;;;;;;;5.28;1.02;;;15.10;99.90;;;;;;6152128;28;20460;-87
2022/11/20 12:21:44;;;;;;;4.38;0.98;;;15.20;99.90;;;;;;6152143;28;20513;-85
2022/11/20 12:24:56;;;;;;;2.83;1.25;;;15.40;99.90;;;;;;6154095;28;20051;-86
2022/11/20 12:28:12;;;;;;;2.80;1.02;;;15.40;99.90;;;;;;6152984;28;20057;-86
2022/11/20 12:31:35;;;;;;;2.95;0.70;;;15.40;99.90;;;;;;6155651;28;20047;-84
2022/11/20 12:34:49;;;;;;;1.20;0.57;;;15.50;99.90;;;;;;6160697;28;20050;-85
2022/11/20 12:38:05;;;;;;;4.07;0.60;;;15.50;99.90;;;;;;6168553;28;20058;-86
2022/11/20 12:45:08;;;;;;;4.45;0.75;;;15.70;99.90;;;;;;6177109;28;20397;-84
2022/11/20 12:45:10;;;;;;;2.35;1.58;;;15.80;99.90;;;;;;6177358;28;20058;-86
2022/11/20 12:48:29;;;;;;;0.30;0.22;;;15.70;99.90;;;;;;6176866;28;20070;-84
2022/11/20 12:51:51;;;;;;;1.40;0.47;;;15.60;99.90;;;;;;6172171;28;20126;-86
2022/11/20 12:55:13;;;;;;;2.17;0.68;;;15.60;99.90;;;;;;6106658;29;20059;-85
2022/11/20 12:58:24;;;;;;;3.00;0.45;;;15.50;99.90;;;;;;6125695;29;20138;-83
2022/11/20 13:01:42;;;;;;;4.63;1.30;;;15.50;99.90;;;;;;6128066;29;20057;-84
2022/11/20 13:04:55;;;;;;;4.75;0.52;;;15.50;99.90;;;;;;6136791;28;20047;-84
2022/11/20 13:07:58;;;;;;;6.93;0.98;;;15.70;99.90;;;;;;6151368;28;20043;-86
2022/11/20 13:11:08;;;;;;;2.15;0.50;;;15.80;99.90;;;;;;6151459;28;20053;-84
2022/11/20 13:14:20;;;;;;;1.02;0.30;;;15.90;99.90;;;;;;6151141;28;20055;-83
2022/11/20 13:17:29;;;;;;;1.50;0.50;;;15.80;99.90;;;;;;6150532;28;20059;-84
2022/11/20 13:20:33;;;;;;;1.90;0.45;;;15.70;99.90;;;;;;6143749;28;20055;-85
2022/11/20 13:23:35;;;;;;;2.20;0.55;;;15.70;99.90;;;;;;6129223;29;20063;-85
2022/11/20 13:26:38;;;;;;;1.15;0.60;;;15.70;99.90;;;;;;6128243;29;20110;-84
2022/11/20 13:29:44;;;;;;;1.35;0.40;;;15.70;99.90;;;;;;6126408;29;20051;-85
2022/11/20 13:32:51;;;;;;;6.88;2.17;;;15.70;99.90;;;;;;6127754;29;20044;-85
2022/11/20 13:35:58;;;;;;;3.67;1.90;;;15.60;99.90;;;;;;6145779;28;20043;-86
2022/11/20 13:39:00;;;;;;;3.40;0.75;;;15.20;99.90;;;;;;6151640;28;20051;-86
2022/11/20 13:42:21;;;;;;;2.90;1.25;;;14.80;99.90;;;;;;6151734;28;20055;-85
2022/11/20 13:45:26;;;;;;;1.33;0.40;;;14.60;99.90;;;;;;6151592;28;20051;-84
2022/11/20 13:48:32;;;;;;;3.13;0.63;;;14.40;99.90;;;;;;6160109;28;20059;-84
2022/11/20 13:51:41;;;;;;;3.83;0.85;;;14.30;99.90;;;;;;6176865;29;20050;-82
2022/11/20 13:55:13;;;;;;;2.78;0.95;;;14.20;99.90;;;;;;6167665;28;20097;-87
2022/11/20 13:58:31;;;;;;;1.25;0.68;;;14.20;99.90;;;;;;6150020;28;20055;-86
2022/11/20 14:01:34;;;;;;;;;;;14.20;99.90;;;;;;6142105;28;20051;-86
2022/11/20 14:04:39;;;;;;;2.05;0.57;;;14.50;99.90;;;;;;6133079;29;19923;-83
2022/11/20 15:49:36;;;;;;;1.30;0.60;;;11.10;99.90;;;;;;6133940;23;20059;-88
2022/11/20 15:53:28;;;;;;;2.90;0.80;;;11.10;99.90;;;;;;6155025;28;20047;-86
2022/11/20 15:56:33;;;;;;;4.13;0.77;;;11.10;99.90;;;;;;6164651;28;20107;-87
2022/11/20 15:59:44;;;;;;;1.52;0.57;;;11.10;99.90;;;;;;6156213;29;20500;-87
2022/11/20 16:02:46;;;;;;;4.40;0.70;;;11.10;99.90;;;;;;6154163;28;20528;-88
2022/11/20 16:05:51;;;;;;;0.90;0.40;;;11.20;99.90;;;;;;6168831;28;20526;-88
2022/11/20 16:08:53;;;;;;;2.08;0.90;;;11.20;99.90;;;;;;6153044;28;20058;-88
2022/11/20 16:11:57;;;;;;;3.90;0.77;;;11.20;99.90;;;;;;6153066;28;20130;-88
2022/11/20 16:18:18;;;;;;;5.45;1.38;;;11.20;99.90;;;;;;6130022;28;20054;-88
2022/11/20 16:21:20;;;;;;;2.20;0.65;;;11.20;99.90;;;;;;6152251;28;20134;-88
2022/11/20 16:24:22;;;;;;;2.58;1.00;;;11.30;99.90;;;;;;6140638;28;20055;-87
2022/11/20 16:27:25;;;;;;;4.07;1.02;;;11.20;99.90;;;;;;6128500;29;20092;-88
2022/11/20 16:30:27;;;;;;;1.40;0.73;;;11.20;99.90;;;;;;6127786;28;20047;-87
2022/11/20 16:33:28;;;;;;;5.03;0.82;;;11.30;99.90;;;;;;6128070;28;20051;-87
2022/11/20 16:36:31;;;;;;;1.35;0.50;;;11.30;99.90;;;;;;6149500;28;20039;-87
2022/11/20 16:39:32;;;;;;;1.40;0.50;;;11.40;99.90;;;;;;6152704;29;20089;-87
2022/11/20 16:42:36;;;;;;;5.28;0.70;;;11.40;99.90;;;;;;6153368;28;20050;-87
2022/11/20 16:45:43;;;;;;;3.03;0.70;;;11.40;99.90;;;;;;6151485;28;20164;-86
2022/11/20 16:48:45;;;;;;;5.47;0.70;;;11.40;99.90;;;;;;6145809;28;20043;-86
2022/11/20 16:51:47;;;;;;;1.40;0.57;;;11.30;99.90;;;;;;6129937;28;20063;-86
2022/11/20 16:54:50;;;;;;;2.97;0.80;;;11.30;99.90;;;;;;6128082;29;20136;-87
2022/11/20 16:57:54;;;;;;;1.77;0.70;;;11.20;99.90;;;;;;6130637;28;20532;-85
2022/11/20 17:00:55;;;;;;;1.00;0.40;;;11.10;99.90;;;;;;6129316;28;20122;-86
2022/11/20 17:03:59;;;;;;;0.55;0.30;;;11.10;99.90;;;;;;6128209;28;20048;-88
2022/11/20 17:07:01;;;;;;;3.58;0.90;;;11.10;99.90;;;;;;6150317;29;20527;-86
2022/11/20 17:10:03;;;;;;;1.95;0.30;;;11.10;99.90;;;;;;6149062;28;20050;-87
2022/11/20 17:13:06;;;;;;;2.58;0.60;;;11.10;99.90;;;;;;6150162;28;20053;-87
2022/11/20 17:16:11;;;;;;;3.10;1.05;;;11.10;99.90;;;;;;6150721;28;20501;-87
2022/11/20 17:19:14;;;;;;;1.92;0.65;;;11.10;99.90;;;;;;6149571;29;20055;-87
2022/11/20 17:22:15;;;;;;;2.50;0.75;;;11.00;99.90;;;;;;6150716;28;20079;-87
2022/11/20 17:25:17;;;;;;;2.20;0.90;;;10.90;99.90;;;;;;6137753;28;20063;-86
2022/11/20 17:28:20;;;;;;;4.20;0.80;;;10.80;99.90;;;;;;6148872;28;20130;-87
2022/11/20 17:31:22;;;;;;;2.72;0.75;;;10.70;99.90;;;;;;6149184;28;20055;-86
2022/11/20 17:34:24;;;;;;;4.03;0.70;;;10.70;99.90;;;;;;6149951;28;20039;-86
2022/11/20 17:37:26;;;;;;;2.78;0.80;;;10.60;99.90;;;;;;6148709;28;20073;-87
2022/11/20 17:40:28;;;;;;;0.77;0.43;;;10.60;99.90;;;;;;6149759;28;20138;-87
2022/11/20 17:43:31;;;;;;;2.55;0.55;;;10.50;99.90;;;;;;6149673;29;20516;-87
2022/11/20 17:46:34;;;;;;;3.42;1.17;;;10.50;99.90;;;;;;6149639;28;20138;-87
2022/11/20 17:49:35;;;;;;;7.22;1.02;;;10.50;99.90;;;;;;6149343;28;20223;-87
2022/11/20 17:52:37;;;;;;;3.00;0.93;;;10.50;99.90;;;;;;6150713;28;20061;-87
2022/11/20 17:59:06;;;;;;;1.77;0.95;;;10.60;99.90;;;;;;6129982;28;20126;-88
2022/11/20 18:02:09;;;;;;;2.28;0.68;;;10.30;99.90;;;;;;6154541;28;20053;-87
2022/11/20 18:05:12;;;;;;;6.82;0.90;;;10.20;99.90;;;;;;6150867;28;20047;-87
2022/11/20 18:08:13;;;;;;;1.45;0.80;;;10.10;99.90;;;;;;6150930;28;20057;-87
2022/11/20 18:11:17;;;;;;;1.02;0.60;;;10.00;99.90;;;;;;6152073;29;20053;-87
2022/11/20 18:14:28;;;;;;;0.88;0.55;;;9.90;99.90;;;;;;6152833;28;20047;-87
2022/11/20 18:17:29;;;;;;;1.40;0.60;;;9.70;99.90;;;;;;6151323;28;20058;-86
2022/11/20 18:20:31;;;;;;;2.25;0.85;;;9.50;99.90;;;;;;6151367;28;20468;-88
2022/11/20 18:23:34;;;;;;;1.60;0.55;;;9.50;99.90;;;;;;6153157;29;20047;-88
2022/11/20 18:26:36;;;;;;;1.73;0.70;;;9.40;99.90;;;;;;6139879;29;20103;-88
2022/11/20 18:29:41;;;;;;;8.20;1.33;;;9.20;99.90;;;;;;6134356;28;20533;-88
2022/11/20 18:32:42;;;;;;;0.98;0.43;;;9.10;99.90;;;;;;6132380;28;20489;-87
2022/11/20 18:35:44;;;;;;;1.60;0.70;;;9.00;99.90;;;;;;6154735;28;20061;-87
2022/11/20 18:38:48;;;;;;;1.58;0.95;;;8.90;99.90;;;;;;6158377;29;20061;-87
2022/11/20 18:45:11;;;;;;;1.40;0.65;;;8.90;99.90;;;;;;6153693;28;20047;-87
2022/11/20 18:48:15;;;;;;;2.22;1.05;;;8.80;99.90;;;;;;6152555;28;20129;-87
2022/11/20 18:51:17;;;;;;;2.58;0.77;;;8.80;99.90;;;;;;6154247;29;20182;-88
2022/11/20 18:54:19;;;;;;;2.20;1.20;;;8.80;99.90;;;;;;6152225;28;20051;-87
2022/11/20 18:57:22;;;;;;;1.48;0.47;;;8.80;99.90;;;;;;6154132;28;20146;-87
2022/11/20 19:00:26;;;;;;;4.65;1.17;;;8.80;99.90;;;;;;6153771;28;20171;-86
2022/11/20 19:03:28;;;;;;;4.53;1.25;;;8.70;99.90;;;;;;6155669;28;20047;-87
2022/11/20 19:06:29;;;;;;;7.40;2.58;;;8.70;99.90;;;;;;6154046;28;20043;-88
2022/11/20 19:09:31;;;;;;;1.88;0.55;;;8.80;99.90;;;;;;6152071;28;20138;-86
2022/11/20 19:12:33;;;;;;;2.55;0.80;;;8.80;99.90;;;;;;6153258;28;20061;-85
2022/11/20 19:15:36;;;;;;;3.42;1.10;;;8.70;99.90;;;;;;6152991;28;20058;-87
2022/11/20 19:18:38;;;;;;;6.10;1.25;;;8.70;99.90;;;;;;6152969;28;20069;-86
2022/11/20 19:21:41;;;;;;;6.10;1.27;;;8.90;99.90;;;;;;6153033;28;20051;-86
2022/11/20 19:24:42;;;;;;;2.80;0.98;;;8.80;99.90;;;;;;6152318;28;20061;-88
2022/11/20 19:27:44;;;;;;;3.10;0.93;;;8.80;99.90;;;;;;6135242;28;20110;-86
2022/11/20 19:30:47;;;;;;;1.48;0.85;;;8.70;99.90;;;;;;6128819;29;20134;-86
2022/11/20 19:33:53;;;;;;;4.47;1.17;;;8.60;99.90;;;;;;6129106;28;20047;-87
2022/11/20 19:36:55;;;;;;;2.20;1.08;;;8.60;99.90;;;;;;6153544;28;20043;-86
2022/11/20 19:39:58;;;;;;;7.88;1.77;;;8.60;99.90;;;;;;6151315;28;20589;-88
2022/11/20 19:43:00;;;;;;;3.40;1.33;;;8.60;99.90;;;;;;6152881;28;20412;-86
2022/11/20 19:46:03;;;;;;;3.03;1.20;;;8.60;99.90;;;;;;6152637;28;20106;-86
2022/11/20 19:49:06;;;;;;;6.22;1.48;;;8.60;99.90;;;;;;6152146;28;20057;-86
2022/11/20 19:52:08;;;;;;;3.53;1.15;;;8.50;99.90;;;;;;6154219;28;20047;-85
2022/11/20 19:55:10;;;;;;;6.43;1.13;;;8.50;99.90;;;;;;6158223;28;20091;-84
2022/11/20 19:58:11;;;;;;;4.32;1.05;;;8.50;99.90;;;;;;6155185;28;20583;-86
2022/11/20 20:01:16;;;;;;;5.55;2.55;;;8.50;99.90;;;;;;6152399;28;20043;-85
2022/11/20 20:04:18;;;;;;;5.80;1.80;;;8.60;99.90;;;;;;6151523;28;20182;-86
2022/11/20 20:07:20;;;;;;;1.63;0.80;;;8.50;99.90;;;;;;6151396;29;20087;-85
2022/11/20 20:10:22;;;;;;;1.40;0.80;;;8.60;99.90;;;;;;6166744;23;20198;-85
2022/11/20 20:13:24;;;;;;;3.30;1.00;;;8.50;99.90;;;;;;6153492;28;20047;-87
2022/11/20 20:16:27;;;;;;;0.75;0.28;;;8.50;99.90;;;;;;6152942;28;20101;-87
2022/11/20 20:19:29;;;;;;;5.38;1.63;;;8.50;99.90;;;;;;6152132;28;20058;-87
2022/11/20 20:22:31;;;;;;;1.08;0.60;;;8.40;99.90;;;;;;6152553;28;20055;-85
2022/11/20 20:25:32;;;;;;;2.75;0.63;;;8.40;99.90;;;;;;6152573;28;20047;-87
2022/11/20 20:28:36;;;;;;;2.97;0.82;;;8.30;99.90;;;;;;6146220;28;20051;-86
2022/11/20 20:31:40;;;;;;;5.25;1.10;;;8.30;99.90;;;;;;6153543;28;20043;-87
2022/11/20 20:34:42;;;;;;;1.80;1.27;;;8.30;99.90;;;;;;6154528;28;20040;-86
2022/11/20 20:37:43;;;;;;;4.50;1.67;;;8.40;99.90;;;;;;6152155;28;20435;-87
2022/11/20 20:40:49;;;;;;;5.30;0.90;;;8.40;99.90;;;;;;6152250;28;20047;-86
2022/11/20 20:47:11;;;;;;;1.27;0.68;;;8.20;99.90;;;;;;6153761;29;20059;-85
2022/11/20 20:50:13;;;;;;;1.42;0.38;;;8.10;99.90;;;;;;6146986;28;20509;-86
2022/11/20 20:53:15;;;;;;;3.28;0.60;;;7.90;99.90;;;;;;6129069;28;20054;-87
2022/11/20 20:56:17;;;;;;;1.90;1.05;;;7.80;99.90;;;;;;6129756;28;20058;-86
2022/11/20 20:59:19;;;;;;;3.00;1.35;;;7.70;99.90;;;;;;6129732;29;20118;-86
2022/11/20 21:02:22;;;;;;;1.40;0.40;;;7.70;99.90;;;;;;6130436;28;20044;-87
2022/11/20 21:05:24;;;;;;;0.90;0.50;;;7.70;99.90;;;;;;6143064;28;20043;-86
2022/11/20 21:08:27;;;;;;;1.33;0.80;;;7.70;99.90;;;;;;6152680;28;20061;-87
2022/11/20 21:11:28;;;;;;;2.83;0.80;;;7.70;99.90;;;;;;6156537;29;20055;-87
2022/11/20 21:14:30;;;;;;;7.55;1.30;;;7.80;99.90;;;;;;6152757;28;20047;-87
2022/11/20 21:17:34;;;;;;;2.67;0.95;;;7.90;99.90;;;;;;6152527;28;20101;-86
2022/11/20 21:23:55;;;;;;;1.25;0.93;;;8.20;99.90;;;;;;6152394;28;20083;-86
2022/11/20 21:26:57;;;;;;;2.97;1.17;;;8.30;99.90;;;;;;6153466;28;20055;-88
2022/11/20 21:29:59;;;;;;;4.63;0.80;;;8.40;99.90;;;;;;6153415;28;20043;-86
2022/11/20 21:33:02;;;;;;;0.82;0.43;;;8.50;99.90;;;;;;6153605;28;20051;-86
2022/11/20 21:36:04;;;;;;;2.97;0.30;;;8.50;99.90;;;;;;6154588;28;20059;-86
2022/11/20 21:39:06;;;;;;;4.78;0.85;;;8.60;99.90;;;;;;6154544;29;20154;-87
2022/11/20 21:42:08;;;;;;;1.33;0.80;;;8.50;99.90;;;;;;6154668;28;20105;-88
2022/11/20 21:45:09;;;;;;;1.10;0.60;;;8.60;99.90;;;;;;6153243;28;20059;-88